Time;durP1;ratioP1;P1;durP2;ratioP2;P2;SDS_P1;SDS_P2;PMS_P1;PMS_P2;Temp;Humidity;BMP_temperature;BMP_pressure;BME280_temperature;BME280_humidity;BME280_pressure;Samples;Min_cycle;Max_cycle;Signal;HPM_P1;HPM_P2
2022/12/31 00:00:10;;;;;;;12.10;7.80;;;;;;;1.82;82.26;99433.85;102140;1294;61617;-24
2022/12/31 00:02:38;;;;;;;13.20;8.60;;;;;;;1.50;82.60;99438.98;102174;1302;75289;-24
2022/12/31 00:05:06;;;;;;;12.50;7.30;;;;;;;1.03;81.41;99441.73;102072;1301;76758;-24
2022/12/31 00:07:34;;;;;;;16.70;9.10;;;;;;;0.96;82.04;99449.52;101985;1299;73977;-24
2022/12/31 00:10:01;;;;;;;18.70;10.80;;;;;;;1.40;80.86;99456.31;102026;1301;61732;-24
2022/12/31 00:12:28;;;;;;;19.50;11.60;;;;;;;1.40;79.44;99455.97;102091;1303;63054;-24
2022/12/31 00:14:55;;;;;;;26.70;13.80;;;;;;;1.06;79.17;99460.45;102004;1294;76387;-24
2022/12/31 00:17:22;;;;;;;22.90;12.40;;;;;;;0.64;79.49;99461.90;102077;1294;76798;-24
2022/12/31 00:19:49;;;;;;;18.90;11.10;;;;;;;0.27;80.52;99468.59;101979;1301;74108;-24
2022/12/31 00:22:16;;;;;;;18.10;11.40;;;;;;;-0.03;81.55;99463.39;102260;1302;61184;-24
2022/12/31 00:24:43;;;;;;;13.90;8.90;;;;;;;-0.21;83.31;99467.52;102033;1299;61825;-24
2022/12/31 00:27:10;;;;;;;14.10;8.50;;;;;;;0.24;85.40;99462.34;102016;1301;75270;-24
2022/12/31 00:29:37;;;;;;;15.50;8.40;;;;;;;0.70;85.06;99465.46;102253;1299;75897;-24
2022/12/31 00:32:04;;;;;;;17.10;9.10;;;;;;;0.72;85.19;99466.93;101940;1301;75123;-24
2022/12/31 00:34:31;;;;;;;14.60;9.00;;;;;;;0.61;85.67;99465.94;101930;1301;62108;-24
2022/12/31 00:36:58;;;;;;;14.70;8.60;;;;;;;0.38;85.57;99464.31;101980;1300;61469;-24
2022/12/31 00:39:25;;;;;;;12.10;7.10;;;;;;;0.15;85.71;99464.71;101951;1301;76317;-24
2022/12/31 00:41:52;;;;;;;12.70;6.90;;;;;;;0.54;85.70;99462.94;102021;1294;76755;-24
2022/12/31 00:44:19;;;;;;;8.70;6.20;;;;;;;0.92;85.37;99464.70;102223;1298;75027;-24
2022/12/31 00:46:47;;;;;;;17.70;10.10;;;;;;;0.98;86.81;99466.37;101988;1294;61634;-23
2022/12/31 00:49:14;;;;;;;14.50;9.40;;;;;;;0.92;87.38;99467.60;102149;1301;61716;-24
2022/12/31 00:51:41;;;;;;;13.70;8.40;;;;;;;0.78;87.79;99475.77;102122;1294;74222;-24
2022/12/31 00:54:08;;;;;;;20.30;9.80;;;;;;;0.69;88.62;99477.95;101977;1295;76805;-24
2022/12/31 00:56:36;;;;;;;16.40;10.20;;;;;;;1.18;88.09;99486.19;102143;1294;74213;-24
2022/12/31 00:59:02;;;;;;;18.40;10.60;;;;;;;1.40;86.64;99487.28;102242;1302;61896;-23
2022/12/31 01:01:32;;;;;;;15.50;10.40;;;;;;;1.24;85.85;99483.59;102268;1299;61851;-24
2022/12/31 01:04:05;;;;;;;17.80;10.80;;;;;;;0.97;86.34;99484.20;102179;1302;76324;-24
2022/12/31 01:06:32;;;;;;;19.80;11.50;;;;;;;0.73;86.67;99488.42;101934;1293;75799;-24
2022/12/31 01:08:59;;;;;;;13.70;6.90;;;;;;;0.50;86.87;99494.30;102046;1302;74957;-24
2022/12/31 01:11:29;;;;;;;15.70;8.40;;;;;;;0.83;86.52;99497.98;102143;1302;62298;-24
2022/12/31 01:14:07;;;;;;;19.90;10.00;;;;;;;1.29;84.81;99496.58;102027;1293;62185;-24
2022/12/31 01:16:41;;;;;;;16.70;9.50;;;;;;;1.31;84.06;99497.73;102085;1295;76695;-24
2022/12/31 01:19:11;;;;;;;19.80;10.80;;;;;;;1.17;84.41;99493.09;102085;1304;76749;-23
2022/12/31 01:21:39;;;;;;;16.60;9.60;;;;;;;0.93;84.59;99494.27;102056;1301;74947;-24
2022/12/31 01:24:07;;;;;;;11.90;7.20;;;;;;;0.63;85.43;99496.61;101949;1305;61175;-24
2022/12/31 01:26:34;;;;;;;15.60;9.80;;;;;;;0.67;86.79;99501.63;101955;1301;61633;-24
2022/12/31 01:29:02;;;;;;;23.90;12.20;;;;;;;1.21;85.98;99505.24;101926;1294;76099;-24
2022/12/31 01:31:29;;;;;;;16.50;9.60;;;;;;;1.39;85.13;99496.73;102002;1299;76774;-24
2022/12/31 01:33:56;;;;;;;15.60;8.90;;;;;;;1.28;84.97;99494.74;102065;1301;75406;-24
2022/12/31 01:36:25;;;;;;;17.20;10.10;;;;;;;1.10;85.12;99493.66;102113;1301;61997;-23
2022/12/31 01:38:56;;;;;;;15.80;9.20;;;;;;;0.84;84.85;99493.19;102099;1297;61876;-24
2022/12/31 01:41:29;;;;;;;12.70;6.70;;;;;;;0.54;84.72;99495.72;102075;1301;74423;-24
2022/12/31 01:44:20;;;;;;;14.70;9.50;;;;;;;0.80;84.08;99494.52;102002;1297;76885;-24
2022/12/31 01:46:53;;;;;;;19.30;9.90;;;;;;;1.16;82.20;99499.45;101861;1298;75138;-24
2022/12/31 01:49:32;;;;;;;24.10;13.70;;;;;;;0.97;81.21;99500.62;101953;1303;62850;-24
2022/12/31 01:52:05;;;;;;;26.70;14.60;;;;;;;0.56;81.45;99504.38;102131;1292;61834;-24
2022/12/31 01:54:34;;;;;;;22.90;13.20;;;;;;;0.14;82.02;99507.22;102227;1292;76099;-24
2022/12/31 01:57:02;;;;;;;18.50;11.90;;;;;;;-0.16;83.23;99507.98;102036;1302;75649;-24
2022/12/31 01:59:29;;;;;;;18.10;10.30;;;;;;;-0.38;84.10;99506.58;102131;1294;74367;-24
2022/12/31 02:01:57;;;;;;;13.70;8.60;;;;;;;-0.02;84.74;99499.50;101990;1301;61802;-24
2022/12/31 02:04:24;;;;;;;20.60;9.80;;;;;;;0.54;85.31;99501.52;101979;1300;61503;-24
2022/12/31 02:06:55;;;;;;;13.70;7.40;;;;;;;0.66;85.57;99498.55;101868;1300;76142;-24
2022/12/31 02:09:22;;;;;;;13.40;8.60;;;;;;;0.53;85.47;99495.59;101890;1301;75602;-24
2022/12/31 02:11:49;;;;;;;20.20;12.50;;;;;;;0.29;85.83;99493.65;102114;1294;73892;-24
2022/12/31 02:14:19;;;;;;;13.10;6.90;;;;;;;0.05;85.89;99492.83;102039;1301;61165;-24
2022/12/31 02:17:05;;;;;;;11.40;7.10;;;;;;;0.12;85.63;99494.48;101923;1302;62692;-24
2022/12/31 02:20:00;;;;;;;11.90;7.30;;;;;;;0.57;85.59;99501.10;101951;1300;76368;-24
2022/12/31 02:22:36;;;;;;;16.80;10.10;;;;;;;0.67;86.04;99503.51;102085;1302;77134;-24
2022/12/31 02:25:57;;;;;;;15.50;8.90;;;;;;;0.56;86.04;99507.30;102131;1294;74935;-24
2022/12/31 02:28:46;;;;;;;16.40;8.20;;;;;;;0.30;86.52;99506.75;101763;1305;61372;-24
2022/12/31 02:31:20;;;;;;;16.50;9.60;;;;;;;0.40;87.06;99506.42;102027;1294;62508;-24
2022/12/31 02:34:02;;;;;;;14.40;9.20;;;;;;;0.96;86.05;99503.05;101959;1302;76437;-24
2022/12/31 02:36:32;;;;;;;20.00;10.80;;;;;;;1.06;84.74;99504.94;102075;1301;77067;-24
2022/12/31 02:38:59;;;;;;;19.20;11.50;;;;;;;0.83;83.89;99504.65;102188;1300;73890;-24
2022/12/31 02:44:18;;;;;;;15.80;8.90;;;;;;;0.18;85.51;99495.51;102151;1301;61801;-24
2022/12/31 02:46:58;;;;;;;15.70;9.00;;;;;;;0.51;85.86;99489.65;102106;1302;76553;-24
2022/12/31 02:49:42;;;;;;;22.00;11.80;;;;;;;0.80;84.83;99488.02;102097;1292;75811;-24
2022/12/31 02:52:37;;;;;;;16.70;9.40;;;;;;;0.72;84.80;99489.48;101976;1301;73898;-24
2022/12/31 02:55:40;;;;;;;21.00;11.90;;;;;;;0.50;85.72;99486.95;102129;1287;61152;-24
2022/12/31 03:02:12;;;;;;;11.90;7.10;;;;;;;0.34;86.22;99483.73;102134;1294;61147;-24
2022/12/31 03:04:30;;;;;;;23.30;11.90;;;;;;;0.73;82.98;99473.73;101919;1301;76846;-24
2022/12/31 03:06:47;;;;;;;20.30;11.90;;;;;;;0.38;82.56;99476.27;101953;1300;74966;-24
2022/12/31 03:09:14;;;;;;;26.60;14.00;;;;;;;0.03;83.16;99477.88;102226;1302;61162;-24
2022/12/31 03:14:27;;;;;;;20.90;13.20;;;;;;;-0.07;85.22;99474.42;102012;1301;75363;-24
2022/12/31 03:16:54;;;;;;;18.90;8.90;;;;;;;0.39;84.02;99480.48;102002;1301;75703;-24
2022/12/31 03:22:26;;;;;;;16.40;9.50;;;;;;;0.24;84.41;99478.77;102093;1300;61075;-24
2022/12/31 03:27:44;;;;;;;19.00;10.20;;;;;;;-0.11;85.82;99475.23;101874;1296;75459;-24
2022/12/31 03:30:12;;;;;;;16.00;9.40;;;;;;;0.35;85.47;99472.23;101936;1301;76029;-24
2022/12/31 03:32:40;;;;;;;17.20;10.70;;;;;;;0.43;84.51;99469.41;102043;1297;75109;-24
2022/12/31 03:35:08;;;;;;;18.60;10.20;;;;;;;0.27;84.36;99472.35;102252;1301;62070;-24
2022/12/31 03:37:35;;;;;;;19.50;11.30;;;;;;;0.01;84.85;99475.54;102167;1298;62815;-24
2022/12/31 03:40:02;;;;;;;12.70;8.00;;;;;;;-0.23;85.76;99479.16;102173;1299;75501;-24
2022/12/31 03:42:29;;;;;;;16.90;9.20;;;;;;;-0.16;87.19;99478.61;102110;1301;76710;-24
2022/12/31 03:44:56;;;;;;;19.40;9.80;;;;;;;0.41;87.46;99487.09;101930;1301;75256;-24
2022/12/31 03:47:23;;;;;;;16.90;8.80;;;;;;;0.60;87.13;99495.02;101905;1301;61490;-24
2022/12/31 03:49:50;;;;;;;15.70;9.90;;;;;;;0.53;86.77;99498.99;101994;1294;62673;-23
2022/12/31 03:52:17;;;;;;;11.50;7.10;;;;;;;0.42;87.00;99491.14;102034;1295;76146;-24
2022/12/31 03:54:44;;;;;;;11.80;6.70;;;;;;;0.28;87.19;99491.77;102089;1302;76472;-24
2022/12/31 03:57:11;;;;;;;16.20;9.60;;;;;;;0.55;86.85;99493.30;102006;1301;74076;-23
2022/12/31 03:59:39;;;;;;;17.30;8.60;;;;;;;1.05;85.49;99494.20;102115;1294;62695;-24
2022/12/31 04:02:06;;;;;;;17.10;9.30;;;;;;;1.06;84.50;99497.75;102122;1301;61786;-24
2022/12/31 04:04:33;;;;;;;17.90;9.50;;;;;;;0.88;84.24;99494.78;102147;1299;76173;-24
2022/12/31 04:07:00;;;;;;;17.60;10.20;;;;;;;0.59;84.25;99497.79;102041;1299;75706;-24
2022/12/31 04:09:27;;;;;;;16.20;9.40;;;;;;;0.30;84.81;99497.35;102134;1302;75327;-24
2022/12/31 04:11:54;;;;;;;10.60;6.20;;;;;;;0.07;85.29;99494.16;101888;1301;63679;-23
2022/12/31 04:14:21;;;;;;;19.70;10.30;;;;;;;0.42;85.10;99493.90;101907;1300;62172;-24
2022/12/31 04:16:48;;;;;;;14.30;8.70;;;;;;;0.83;83.69;99496.66;102024;1298;73914;-24
2022/12/31 04:19:15;;;;;;;15.80;8.70;;;;;;;0.79;82.67;99501.73;102006;1300;76818;-24
2022/12/31 04:21:42;;;;;;;14.50;8.90;;;;;;;0.51;82.43;99504.02;102022;1301;73947;-24
2022/12/31 04:24:10;;;;;;;18.90;10.50;;;;;;;0.16;82.94;99496.23;101945;1301;61590;-24
2022/12/31 04:26:37;;;;;;;20.40;10.60;;;;;;;-0.17;83.22;99487.71;102004;1294;61736;-23
2022/12/31 04:29:04;;;;;;;15.70;8.00;;;;;;;-0.45;84.05;99484.23;102035;1297;75372;-23
2022/12/31 04:31:31;;;;;;;17.30;8.90;;;;;;;-0.17;84.31;99484.45;102091;1292;75843;-24
2022/12/31 04:33:58;;;;;;;18.00;10.00;;;;;;;0.23;83.52;99484.58;102207;1294;74289;-24
2022/12/31 04:36:25;;;;;;;19.70;10.80;;;;;;;0.20;83.08;99490.49;102008;1286;61847;-24
2022/12/31 04:38:52;;;;;;;18.50;10.50;;;;;;;-0.05;83.02;99493.14;102137;1301;62538;-24
2022/12/31 04:41:20;;;;;;;18.90;9.80;;;;;;;-0.35;83.17;99499.14;101999;1294;76268;-24
2022/12/31 04:43:54;;;;;;;20.10;11.00;;;;;;;-0.60;84.03;99497.28;101963;1301;77064;-23
2022/12/31 04:46:26;;;;;;;12.00;7.00;;;;;;;-0.77;84.73;99498.27;101907;1302;72952;-23
2022/12/31 04:48:53;;;;;;;16.50;7.30;;;;;;;-0.28;85.06;99494.84;101989;1303;61276;-24
2022/12/31 04:51:20;;;;;;;14.80;8.60;;;;;;;0.30;84.23;99491.89;102093;1301;61584;-24
2022/12/31 04:53:48;;;;;;;15.40;8.80;;;;;;;0.37;83.31;99494.04;102083;1301;75478;-24
2022/12/31 04:56:15;;;;;;;16.40;9.40;;;;;;;0.19;83.29;99494.60;102032;1294;76885;-24
2022/12/31 04:58:43;;;;;;;14.40;8.70;;;;;;;-0.04;83.50;99493.47;102242;1300;74938;-24
2022/12/31 05:01:10;;;;;;;17.10;9.10;;;;;;;-0.29;83.80;99491.98;102032;1292;61193;-24
2022/12/31 05:03:38;;;;;;;18.80;12.00;;;;;;;-0.52;84.34;99496.05;102299;1293;61611;-24
2022/12/31 05:06:13;;;;;;;11.40;7.30;;;;;;;-0.71;84.63;99494.72;102099;1294;76298;-23
2022/12/31 05:08:40;;;;;;;18.10;10.30;;;;;;;-0.26;84.97;99492.91;102020;1297;75824;-24
2022/12/31 05:11:08;;;;;;;12.40;8.40;;;;;;;0.28;83.98;99487.52;102013;1294;75192;-24
2022/12/31 05:13:35;;;;;;;16.10;9.20;;;;;;;0.32;83.10;99483.45;102127;1302;61829;-24
2022/12/31 05:16:03;;;;;;;16.00;9.40;;;;;;;0.13;83.08;99484.39;101886;1284;61911;-24
2022/12/31 05:18:30;;;;;;;16.70;9.80;;;;;;;-0.12;83.12;99494.21;101995;1301;76507;-24
2022/12/31 05:20:57;;;;;;;22.30;11.90;;;;;;;-0.36;83.44;99493.70;101950;1294;76702;-24
2022/12/31 05:23:24;;;;;;;29.50;16.60;;;;;;;-0.62;83.73;99495.64;101907;1299;75189;-24
2022/12/31 05:25:51;;;;;;;15.20;8.80;;;;;;;-0.82;84.22;99498.24;101986;1301;61384;-23
2022/12/31 05:28:18;;;;;;;33.70;15.80;;;;;;;-0.46;84.26;99496.88;102093;1300;63097;-23
2022/12/31 05:30:49;;;;;;;39.10;18.90;;;;;;;0.15;83.63;99496.62;102087;1301;75341;-24
2022/12/31 05:33:17;;;;;;;33.10;17.60;;;;;;;0.28;82.96;99497.08;101942;1297;76822;-24
2022/12/31 05:35:44;;;;;;;25.80;13.40;;;;;;;0.07;82.56;99497.72;102029;1300;75409;-23
2022/12/31 05:38:11;;;;;;;22.60;13.40;;;;;;;-0.21;82.65;99498.21;102002;1300;61164;-24
2022/12/31 05:40:38;;;;;;;15.90;8.80;;;;;;;-0.48;83.09;99503.80;102172;1301;62711;-23
2022/12/31 05:43:05;;;;;;;19.40;9.70;;;;;;;-0.71;83.83;99505.11;102117;1294;76108;-24
2022/12/31 05:45:32;;;;;;;18.70;9.80;;;;;;;-0.72;85.47;99496.93;102136;1301;76513;-24
2022/12/31 05:47:59;;;;;;;14.60;8.60;;;;;;;-0.03;86.08;99489.82;102102;1301;73893;-24
2022/12/31 05:50:26;;;;;;;14.90;9.80;;;;;;;0.45;84.90;99488.50;102084;1301;61773;-23
2022/12/31 05:52:54;;;;;;;20.60;10.80;;;;;;;0.42;83.72;99489.81;102254;1300;61784;-23
2022/12/31 05:55:22;;;;;;;19.90;11.50;;;;;;;0.15;83.31;99483.48;102157;1301;76106;-23
2022/12/31 05:57:48;;;;;;;20.40;10.50;;;;;;;-0.12;83.30;99488.58;102149;1302;76591;-24
2022/12/31 06:00:16;;;;;;;17.30;9.40;;;;;;;-0.37;83.80;99489.48;101968;1294;75176;-23
2022/12/31 06:02:44;;;;;;;16.30;9.60;;;;;;;-0.61;84.37;99489.48;102206;1297;61069;-24
2022/12/31 06:05:11;;;;;;;14.00;7.60;;;;;;;-0.75;84.70;99492.27;102239;1302;62838;-23
2022/12/31 06:07:38;;;;;;;14.30;8.20;;;;;;;-0.22;85.04;99495.18;102241;1301;75326;-24
2022/12/31 06:10:05;;;;;;;17.20;10.10;;;;;;;0.37;83.63;99494.73;102165;1294;76468;-25
2022/12/31 06:12:34;;;;;;;20.70;11.00;;;;;;;0.45;83.04;99496.53;101950;1297;74135;-24
2022/12/31 06:15:01;;;;;;;16.10;9.60;;;;;;;0.27;82.77;99500.34;102076;1302;61156;-25
2022/12/31 06:17:31;;;;;;;18.80;11.60;;;;;;;0.02;83.09;99509.14;102187;1301;62837;-24
2022/12/31 06:19:58;;;;;;;16.40;10.20;;;;;;;-0.22;83.57;99509.50;102085;1294;75380;-24
2022/12/31 06:22:26;;;;;;;14.40;7.90;;;;;;;-0.36;84.82;99505.13;101987;1294;76793;-24
2022/12/31 06:24:53;;;;;;;21.90;10.20;;;;;;;0.15;85.35;99504.98;101944;1301;75141;-24
2022/12/31 06:27:20;;;;;;;13.00;8.30;;;;;;;0.76;84.30;99499.80;101967;1299;61593;-24
2022/12/31 06:29:47;;;;;;;21.70;12.50;;;;;;;0.90;83.72;99502.89;101973;1294;62778;-24
2022/12/31 06:32:14;;;;;;;24.60;12.80;;;;;;;0.81;83.79;99500.98;102062;1294;73477;-24
2022/12/31 06:34:41;;;;;;;19.50;10.70;;;;;;;0.63;84.69;99499.36;101972;1301;75748;-23
2022/12/31 06:37:08;;;;;;;18.70;11.90;;;;;;;0.51;85.59;99498.54;102140;1301;75088;-23
2022/12/31 06:39:35;;;;;;;18.20;9.80;;;;;;;0.47;86.06;99504.99;102048;1296;62424;-23
2022/12/31 06:42:03;;;;;;;10.50;6.70;;;;;;;1.04;85.83;99499.16;101896;1300;61881;-23
2022/12/31 06:44:30;;;;;;;21.70;11.50;;;;;;;1.52;84.50;99500.72;101010;1301;1380280;-23
2022/12/31 06:46:57;;;;;;;15.90;10.10;;;;;;;1.57;83.59;99499.66;101966;1302;76843;-22
2022/12/31 06:49:24;;;;;;;11.50;8.20;;;;;;;1.44;83.72;99497.09;101879;1302;74878;-22
2022/12/31 06:51:51;;;;;;;19.40;12.80;;;;;;;1.26;84.12;99494.66;101856;1301;61120;-23
2022/12/31 06:54:18;;;;;;;14.60;10.20;;;;;;;1.08;84.54;99493.40;101861;1294;62544;-22
2022/12/31 06:56:45;;;;;;;18.10;9.60;;;;;;;1.04;85.33;99492.34;102034;1301;75548;-22
2022/12/31 06:59:22;;;;;;;15.30;9.90;;;;;;;1.48;84.55;99489.23;101995;1302;75707;-22
2022/12/31 07:02:09;;;;;;;19.20;10.90;;;;;;;1.68;83.36;99492.61;101865;1295;75186;-22
2022/12/31 07:05:01;;;;;;;14.40;9.40;;;;;;;1.53;83.27;99487.52;101942;1301;61805;-22
2022/12/31 07:07:48;;;;;;;23.40;12.90;;;;;;;1.27;83.95;99488.09;101933;1297;62155;-22
2022/12/31 07:10:25;;;;;;;12.80;6.90;;;;;;;1.11;84.85;99491.58;101972;1302;76412;-22
2022/12/31 07:13:05;;;;;;;14.30;8.50;;;;;;;1.58;85.23;99493.14;101956;1301;76800;-22
2022/12/31 07:15:50;;;;;;;18.10;9.00;;;;;;;1.97;83.75;99490.66;101909;1304;75225;-22
2022/12/31 07:18:36;;;;;;;15.70;7.70;;;;;;;1.96;83.57;99487.11;102042;1295;62001;-22
2022/12/31 07:21:14;;;;;;;18.10;12.50;;;;;;;1.74;84.23;99487.92;102047;1301;63044;-22
2022/12/31 07:23:42;;;;;;;11.70;8.40;;;;;;;1.54;85.61;99484.23;101956;1301;76382;-23
2022/12/31 07:26:22;;;;;;;18.10;10.40;;;;;;;1.83;85.50;99488.24;102075;1301;76688;-23
2022/12/31 07:28:57;;;;;;;21.50;12.10;;;;;;;2.16;84.46;99491.43;101950;1300;73390;-22
2022/12/31 07:31:28;;;;;;;20.60;11.60;;;;;;;2.16;84.21;99491.30;101987;1305;62888;-22
2022/12/31 07:34:01;;;;;;;21.70;11.20;;;;;;;2.06;84.45;99488.58;102107;1292;61954;-23
2022/12/31 07:36:28;;;;;;;15.10;9.70;;;;;;;1.90;84.91;99485.27;102001;1303;75361;-22
2022/12/31 07:38:57;;;;;;;14.90;9.70;;;;;;;2.18;84.71;99477.49;102059;1298;75575;-23
2022/12/31 07:41:54;;;;;;;19.50;12.20;;;;;;;2.44;83.62;99473.56;101974;1302;75208;-23
2022/12/31 07:44:43;;;;;;;20.60;12.30;;;;;;;2.45;83.39;99465.77;101996;1292;63095;-23
2022/12/31 07:47:21;;;;;;;16.50;11.40;;;;;;;2.32;83.95;99463.77;101993;1294;61611;-23
2022/12/31 07:49:49;;;;;;;15.70;11.10;;;;;;;2.22;84.47;99461.90;101962;1304;76414;-23
2022/12/31 07:52:17;;;;;;;15.50;9.00;;;;;;;2.44;84.84;99464.77;102253;1302;76794;-23
2022/12/31 07:54:44;;;;;;;20.60;13.30;;;;;;;2.85;83.30;99466.19;102012;1304;74835;-23
2022/12/31 07:57:13;;;;;;;19.40;13.20;;;;;;;2.94;82.50;99469.05;101964;1295;63079;-23
2022/12/31 08:00:04;;;;;;;22.00;14.30;;;;;;;2.78;82.82;99467.84;101990;1297;61515;-23
2022/12/31 08:03:07;;;;;;;17.10;11.00;;;;;;;2.68;83.63;99463.28;102228;1294;76962;-23
2022/12/31 08:05:40;;;;;;;18.60;12.50;;;;;;;2.68;84.26;99462.08;102225;1301;76755;-22
2022/12/31 08:08:30;;;;;;;21.20;13.30;;;;;;;3.06;83.26;99465.25;102021;1301;75274;-23
2022/12/31 08:12:01;;;;;;;24.60;14.10;;;;;;;3.18;82.73;99465.45;99146;1336;601120;-21
2022/12/31 08:14:29;;;;;;;15.40;8.70;;;;;;;3.11;83.15;99471.76;101359;1308;61187;-22
2022/12/31 08:16:56;;;;;;;15.70;9.60;;;;;;;3.05;83.60;99474.25;101352;1311;62605;-21
2022/12/31 08:19:29;;;;;;;18.70;11.40;;;;;;;3.28;83.53;99472.38;101314;1311;75063;-22
2022/12/31 08:22:15;;;;;;;21.20;13.10;;;;;;;3.62;82.14;99465.00;101343;1312;76768;-22
2022/12/31 08:25:21;;;;;;;14.20;9.50;;;;;;;3.59;81.72;99459.67;100415;1302;1414324;-22
2022/12/31 08:27:59;;;;;;;17.20;10.20;;;;;;;3.48;82.27;99451.77;101454;1311;61875;-22
2022/12/31 08:30:35;;;;;;;15.60;8.70;;;;;;;3.37;83.04;99447.95;101610;1308;63026;-22
2022/12/31 08:33:16;;;;;;;17.60;8.60;;;;;;;3.84;82.87;99443.02;101415;1311;74484;-22
2022/12/31 08:36:28;;;;;;;17.20;9.60;;;;;;;4.46;80.53;99437.53;101312;1311;74875;-22
2022/12/31 08:39:04;;;;;;;15.80;10.60;;;;;;;4.56;79.34;99424.94;101175;1308;73985;-22
2022/12/31 08:41:41;;;;;;;18.40;11.20;;;;;;;4.43;79.49;99423.42;101478;1302;62660;-22
2022/12/31 08:44:18;;;;;;;17.70;11.10;;;;;;;4.21;80.02;99419.50;101172;1305;61544;-22
2022/12/31 08:46:51;;;;;;;15.40;9.20;;;;;;;4.03;80.87;99417.92;101201;1312;75356;-23
2022/12/31 08:49:19;;;;;;;15.40;9.20;;;;;;;4.05;81.53;99414.92;102344;1297;76378;-23
2022/12/31 08:51:47;;;;;;;20.30;11.40;;;;;;;4.70;80.48;99413.27;102299;1298;75077;-24
2022/12/31 08:54:14;;;;;;;15.30;9.00;;;;;;;5.07;78.64;99402.09;102265;1301;62599;-23
2022/12/31 08:56:44;;;;;;;14.00;7.10;;;;;;;5.25;77.79;99399.08;102400;1296;61570;-25
2022/12/31 08:59:28;;;;;;;17.90;9.10;;;;;;;5.22;77.86;99395.42;102310;1301;75662;-24
2022/12/31 09:02:21;;;;;;;11.50;7.70;;;;;;;5.16;78.09;99395.23;102406;1296;74776;-23
2022/12/31 09:05:01;;;;;;;11.00;6.90;;;;;;;4.98;78.40;99397.38;102277;1297;73214;-24
2022/12/31 09:07:35;;;;;;;16.50;9.20;;;;;;;4.94;78.82;99403.44;102024;1302;62872;-24
2022/12/31 09:10:38;;;;;;;16.80;10.40;;;;;;;4.90;78.93;99389.55;102234;1296;61855;-24
2022/12/31 09:13:22;;;;;;;16.00;9.40;;;;;;;4.84;79.43;99389.15;102148;1295;75519;-24
2022/12/31 09:15:52;;;;;;;14.30;7.40;;;;;;;5.22;78.13;99388.20;102251;1301;75885;-24
2022/12/31 09:18:20;;;;;;;14.00;8.60;;;;;;;5.38;77.18;99387.67;102320;1299;74330;-24
2022/12/31 09:20:47;;;;;;;13.10;9.00;;;;;;;5.29;77.52;99383.34;102339;1302;62611;-24
2022/12/31 09:23:15;;;;;;;12.00;6.10;;;;;;;5.24;77.66;99377.46;102349;1299;61535;-24
2022/12/31 09:26:33;;;;;;;10.50;5.80;;;;;;;5.05;78.32;99380.16;102200;1298;73058;-24
2022/12/31 09:29:00;;;;;;;12.70;9.40;;;;;;;5.20;78.21;99378.49;102031;1302;76434;-24
2022/12/31 09:31:27;;;;;;;9.50;7.00;;;;;;;5.75;76.71;99381.54;102336;1299;74198;-24
2022/12/31 09:34:03;;;;;;;8.20;5.30;;;;;;;5.78;75.68;99381.52;102415;1299;62751;-24
2022/12/31 09:36:33;;;;;;;10.70;6.10;;;;;;;5.68;76.01;99380.20;102195;1301;61977;-24
2022/12/31 09:39:04;;;;;;;10.90;5.70;;;;;;;5.51;76.56;99377.66;102359;1298;75603;-24
2022/12/31 09:41:59;;;;;;;10.80;6.60;;;;;;;5.59;76.70;99369.16;102323;1301;75488;-24
2022/12/31 09:44:32;;;;;;;10.30;6.40;;;;;;;5.55;76.91;99361.64;102324;1301;74270;-24
2022/12/31 09:47:18;;;;;;;10.40;7.10;;;;;;;5.62;76.37;99357.28;102287;1300;61087;-24
2022/12/31 09:50:17;;;;;;;9.20;5.20;;;;;;;5.91;75.45;99358.08;102360;1299;62839;-24
2022/12/31 09:52:53;;;;;;;9.90;5.60;;;;;;;6.18;74.17;99359.99;102390;1292;75587;-24
2022/12/31 09:55:32;;;;;;;10.40;6.60;;;;;;;6.22;73.62;99355.80;102355;1297;76746;-24
2022/12/31 09:58:11;;;;;;;8.10;5.70;;;;;;;6.15;73.58;99354.81;102116;1301;75273;-24
2022/12/31 10:00:42;;;;;;;8.90;5.80;;;;;;;5.97;74.18;99352.57;102307;1303;61632;-24
2022/12/31 10:03:19;;;;;;;9.50;6.30;;;;;;;5.88;74.34;99344.96;102095;1302;62613;-24
2022/12/31 10:05:58;;;;;;;6.80;5.00;;;;;;;5.76;75.12;99348.55;102276;1299;75544;-24
2022/12/31 10:08:37;;;;;;;11.70;6.80;;;;;;;6.17;73.98;99344.37;102117;1299;76659;-24
2022/12/31 10:11:25;;;;;;;11.60;6.50;;;;;;;6.42;72.64;99349.46;102181;1302;75041;-24
2022/12/31 10:14:02;;;;;;;8.10;5.30;;;;;;;6.44;72.42;99354.55;102364;1297;62951;-25
2022/12/31 10:16:34;;;;;;;7.90;5.70;;;;;;;6.28;72.78;99350.95;102366;1301;62842;-24
2022/12/31 10:19:42;;;;;;;12.30;8.00;;;;;;;6.13;73.45;99344.64;102337;1299;75388;-24
2022/12/31 10:22:36;;;;;;;15.60;8.10;;;;;;;6.02;73.94;99349.88;102303;1296;76681;-25
2022/12/31 10:25:22;;;;;;;8.40;5.10;;;;;;;5.92;74.52;99351.31;102250;1291;73958;-24
2022/12/31 10:28:18;;;;;;;8.30;5.50;;;;;;;6.38;73.47;99351.62;102303;1291;62892;-24
2022/12/31 10:31:03;;;;;;;9.30;6.10;;;;;;;6.71;71.97;99353.09;102280;1298;61730;-24
2022/12/31 10:34:06;;;;;;;8.30;5.70;;;;;;;6.56;72.06;99352.08;102179;1299;73786;-24
2022/12/31 10:37:02;;;;;;;12.20;7.50;;;;;;;6.51;72.30;99346.87;102321;1297;75877;-24
2022/12/31 10:39:43;;;;;;;10.50;6.30;;;;;;;6.47;73.02;99346.59;102244;1302;74995;-24
2022/12/31 10:42:21;;;;;;;12.30;8.40;;;;;;;6.26;73.43;99348.46;102217;1299;62605;-24
2022/12/31 10:45:26;;;;;;;14.60;8.20;;;;;;;6.20;74.20;99353.48;102295;1298;61418;-24
2022/12/31 10:48:18;;;;;;;10.30;7.10;;;;;;;6.55;73.26;99360.77;102294;1301;75169;-24
2022/12/31 10:50:54;;;;;;;8.80;5.20;;;;;;;7.01;71.39;99352.81;102177;1295;75629;-24
2022/12/31 10:53:35;;;;;;;11.30;7.40;;;;;;;7.21;71.01;99342.59;102303;1303;75112;-26
2022/12/31 10:56:21;;;;;;;10.20;6.70;;;;;;;6.99;71.10;99335.86;102270;1302;61836;-24
2022/12/31 10:59:09;;;;;;;8.10;5.60;;;;;;;6.76;71.67;99325.16;102185;1300;62858;-24
2022/12/31 11:01:55;;;;;;;12.00;7.20;;;;;;;6.76;72.10;99320.38;102331;1299;75604;-24
2022/12/31 11:04:33;;;;;;;11.50;7.00;;;;;;;6.64;72.60;99324.69;102378;1297;76679;-25
2022/12/31 11:07:14;;;;;;;11.10;7.50;;;;;;;6.67;72.94;99324.80;102248;1303;74207;-25
2022/12/31 11:10:03;;;;;;;11.50;7.00;;;;;;;6.83;72.55;99321.27;102147;1302;61564;-26
2022/12/31 11:13:08;;;;;;;8.90;5.60;;;;;;;6.86;72.42;99320.44;102270;1301;62832;-25
2022/12/31 11:16:02;;;;;;;9.20;6.80;;;;;;;6.78;72.48;99321.11;102309;1298;75505;-25
2022/12/31 11:18:36;;;;;;;9.80;6.00;;;;;;;7.16;71.69;99321.50;102303;1299;76586;-25
2022/12/31 11:21:12;;;;;;;11.10;7.50;;;;;;;7.56;70.46;99320.19;102297;1301;75057;-24
2022/12/31 11:23:49;;;;;;;9.20;6.00;;;;;;;7.59;69.97;99316.72;102256;1302;61804;-24
2022/12/31 11:26:51;;;;;;;9.70;6.50;;;;;;;7.39;70.27;99310.23;102242;1298;61797;-25
2022/12/31 11:29:30;;;;;;;12.20;7.40;;;;;;;7.13;70.94;99316.84;102132;1302;75661;-24
2022/12/31 11:32:00;;;;;;;12.90;8.00;;;;;;;6.92;71.65;99315.94;102290;1295;76491;-24
2022/12/31 11:34:36;;;;;;;11.10;7.30;;;;;;;6.79;72.32;99320.84;102232;1294;74159;-24
2022/12/31 11:37:28;;;;;;;7.70;5.00;;;;;;;6.68;73.06;99325.85;102133;1303;61594;-24
2022/12/31 11:40:14;;;;;;;8.10;5.80;;;;;;;7.29;72.10;99323.43;102142;1295;62976;-24
2022/12/31 11:43:01;;;;;;;11.40;7.50;;;;;;;7.74;70.26;99316.77;102210;1294;75526;-24
2022/12/31 11:45:43;;;;;;;9.50;6.80;;;;;;;7.78;69.60;99322.56;102362;1298;76783;-25
2022/12/31 11:48:42;;;;;;;8.30;5.50;;;;;;;7.67;69.59;99320.89;102200;1302;75057;-24
2022/12/31 11:51:12;;;;;;;10.70;6.50;;;;;;;7.41;70.02;99314.80;102339;1305;61925;-24
2022/12/31 11:53:56;;;;;;;9.90;7.10;;;;;;;7.15;70.74;99318.13;102174;1302;61797;-24
2022/12/31 11:56:24;;;;;;;8.30;6.20;;;;;;;7.01;71.40;99316.59;102309;1302;74614;-24
2022/12/31 11:58:52;;;;;;;10.50;6.80;;;;;;;7.01;71.52;99311.58;102122;1301;74751;-24
2022/12/31 12:02:07;;;;;;;8.50;4.70;;;;;;;7.16;71.50;99305.98;101934;1300;75209;-24
2022/12/31 12:04:34;;;;;;;10.20;6.50;;;;;;;8.17;68.94;99304.41;102156;1300;61562;-24
2022/12/31 12:07:01;;;;;;;9.60;5.60;;;;;;;8.59;66.46;99306.52;102319;1299;61960;-24
2022/12/31 12:09:30;;;;;;;10.20;6.20;;;;;;;8.50;66.81;99299.48;102337;1299;75311;-25